createdAt,value
2022-12-19T00:01:43.438Z,65.43
2022-12-19T00:04:12.342Z,58.90
2022-12-19T00:06:43.854Z,59.45
2022-12-19T00:09:12.802Z,59.72
2022-12-19T00:11:40.788Z,65.25
2022-12-19T00:14:09.365Z,63.97
2022-12-19T00:16:36.334Z,62.88
2022-12-19T00:19:03.954Z,57.55
2022-12-19T00:21:34.890Z,61.47
2022-12-19T00:24:14.543Z,63.80
2022-12-19T00:26:49.689Z,61.85
2022-12-19T00:29:16.929Z,58.75
2022-12-19T00:31:43.827Z,69.90
2022-12-19T00:34:10.796Z,70.28
2022-12-19T00:36:37.797Z,60.05
2022-12-19T00:39:07.837Z,76.75
2022-12-19T00:41:36.873Z,70.18
2022-12-19T00:44:10.883Z,77.75
2022-12-19T00:46:38.002Z,65.82
2022-12-19T00:49:05.422Z,72.00
2022-12-19T00:51:34.936Z,71.90
2022-12-19T00:54:02.123Z,68.05
2022-12-19T00:56:33.482Z,73.95
2022-12-19T00:59:05.055Z,63.55
2022-12-19T01:01:36.277Z,67.90
2022-12-19T01:06:52.612Z,66.50
2022-12-19T01:09:21.796Z,73.53
2022-12-19T01:12:07.581Z,62.63
2022-12-19T01:14:34.896Z,67.75
2022-12-19T01:17:01.745Z,77.85
2022-12-19T01:19:28.666Z,72.15
2022-12-19T01:21:55.536Z,69.18
2022-12-19T01:24:22.411Z,75.38
2022-12-19T01:26:49.379Z,73.22
2022-12-19T01:29:16.380Z,67.88
2022-12-19T01:31:43.285Z,74.18
2022-12-19T01:34:10.350Z,72.70
2022-12-19T01:36:39.855Z,69.65
2022-12-19T01:39:07.907Z,69.40
2022-12-19T01:41:35.792Z,70.68
2022-12-19T01:44:08.171Z,70.82
2022-12-19T01:46:36.694Z,64.55
2022-12-19T01:49:04.767Z,67.20
2022-12-19T01:51:45.222Z,75.07
2022-12-19T01:54:17.592Z,72.80
2022-12-19T01:56:50.073Z,72.20
2022-12-19T01:59:38.873Z,75.03
2022-12-19T02:02:15.069Z,75.13
2022-12-19T02:04:42.051Z,72.28
2022-12-19T02:07:15.200Z,70.85
2022-12-19T02:09:50.274Z,66.22
2022-12-19T02:12:28.649Z,74.63
2022-12-19T02:15:02.608Z,70.30
2022-12-19T02:17:50.196Z,62.55
2022-12-19T02:20:59.825Z,67.07
2022-12-19T02:23:48.021Z,62.88
2022-12-19T02:26:56.038Z,74.97
2022-12-19T02:29:34.330Z,66.40
2022-12-19T02:32:11.896Z,61.65
2022-12-19T02:35:02.499Z,69.93
2022-12-19T02:37:57.731Z,64.68
2022-12-19T02:40:34.215Z,71.10
2022-12-19T02:43:03.007Z,64.60
2022-12-19T02:45:37.077Z,60.33
2022-12-19T02:48:08.821Z,67.28
2022-12-19T02:50:45.320Z,69.85
2022-12-19T02:53:16.598Z,62.60
2022-12-19T02:56:22.963Z,64.85
2022-12-19T02:59:10.953Z,67.35
2022-12-19T03:01:38.412Z,63.08
2022-12-19T03:04:08.180Z,70.90
2022-12-19T03:06:49.532Z,60.25
2022-12-19T03:09:29.052Z,68.65
2022-12-19T03:12:15.765Z,69.03
2022-12-19T03:14:46.760Z,67.95
2022-12-19T03:17:13.599Z,64.65
2022-12-19T03:19:41.680Z,63.30
2022-12-19T03:22:08.725Z,56.95
2022-12-19T03:24:35.946Z,66.07
2022-12-19T03:27:16.568Z,68.55
2022-12-19T03:29:46.032Z,67.78
2022-12-19T03:32:14.536Z,65.50
2022-12-19T03:34:52.502Z,64.35
2022-12-19T03:37:24.423Z,63.22
2022-12-19T03:39:57.531Z,66.00
2022-12-19T03:42:45.558Z,66.03
2022-12-19T03:45:17.747Z,66.35
2022-12-19T03:47:52.607Z,58.72
2022-12-19T03:50:19.651Z,60.85
2022-12-19T03:53:03.252Z,72.20
2022-12-19T03:55:47.716Z,70.53
2022-12-19T03:58:24.087Z,60.72
2022-12-19T04:00:51.893Z,63.85
2022-12-19T04:03:21.232Z,64.80
2022-12-19T04:05:49.568Z,66.78
2022-12-19T04:08:17.590Z,66.88
2022-12-19T04:10:59.336Z,72.75
2022-12-19T04:13:41.700Z,47.53
2022-12-19T04:16:46.533Z,73.72
2022-12-19T04:19:20.225Z,63.92
2022-12-19T04:22:00.232Z,59.25
2022-12-19T04:24:34.284Z,57.85
2022-12-19T04:27:03.550Z,66.68
2022-12-19T04:29:34.194Z,68.07
2022-12-19T04:32:03.815Z,61.83
2022-12-19T04:34:30.656Z,65.55
2022-12-19T04:36:57.846Z,72.85
2022-12-19T04:39:24.790Z,63.40
2022-12-19T04:41:51.622Z,59.13
2022-12-19T04:44:18.464Z,74.22
2022-12-19T04:46:45.325Z,58.00
2022-12-19T04:49:12.161Z,65.20
2022-12-19T04:51:38.996Z,63.10
2022-12-19T04:54:05.848Z,64.90
2022-12-19T04:56:32.638Z,69.88
2022-12-19T04:59:00.470Z,63.80
2022-12-19T05:01:27.494Z,65.43
2022-12-19T05:03:57.551Z,63.63
2022-12-19T05:06:26.759Z,70.80
2022-12-19T05:08:53.649Z,71.28
2022-12-19T05:11:20.467Z,71.03
2022-12-19T05:13:47.797Z,58.85
2022-12-19T05:16:15.924Z,64.30
2022-12-19T05:18:43.708Z,61.22
2022-12-19T05:21:11.108Z,63.47
2022-12-19T05:23:38.536Z,65.45
2022-12-19T05:26:07.052Z,64.82
2022-12-19T05:28:34.712Z,63.65
2022-12-19T05:31:13.629Z,66.78
2022-12-19T05:33:41.589Z,62.17
2022-12-19T05:36:09.738Z,63.30
2022-12-19T05:38:36.724Z,59.65
2022-12-19T05:41:10.911Z,68.65
2022-12-19T05:43:37.938Z,65.55
2022-12-19T05:46:05.941Z,62.15
2022-12-19T05:48:32.797Z,64.03
2022-12-19T05:50:59.609Z,57.55
2022-12-19T05:53:28.193Z,62.80
2022-12-19T05:56:06.147Z,59.60
2022-12-19T05:58:36.374Z,64.45
2022-12-19T06:01:08.840Z,57.92
2022-12-19T06:03:35.972Z,61.38
2022-12-19T06:06:09.210Z,59.72
2022-12-19T06:08:36.112Z,59.83
2022-12-19T06:11:05.086Z,61.78
2022-12-19T06:13:31.977Z,62.15
2022-12-19T06:16:04.646Z,57.97
2022-12-19T06:18:32.158Z,61.38
2022-12-19T06:21:04.338Z,53.35
2022-12-19T06:26:00.146Z,56.80
2022-12-19T06:28:28.554Z,52.85
2022-12-19T06:30:59.931Z,66.68
2022-12-19T06:33:27.676Z,60.28
2022-12-19T06:36:06.110Z,59.05
2022-12-19T06:38:34.389Z,54.40
2022-12-19T06:41:22.078Z,53.22
2022-12-19T06:43:53.384Z,50.70
2022-12-19T06:46:20.742Z,44.15
2022-12-19T06:48:47.756Z,62.13
2022-12-19T06:51:14.558Z,57.28
2022-12-19T06:53:41.366Z,62.05
2022-12-19T06:56:08.441Z,54.60
2022-12-19T06:58:35.515Z,57.15
2022-12-19T07:01:02.449Z,58.35
2022-12-19T07:03:34.802Z,56.13
2022-12-19T07:06:02.025Z,57.70
2022-12-19T07:08:29.755Z,55.88
2022-12-19T07:10:57.812Z,52.17
2022-12-19T07:13:24.804Z,53.85
2022-12-19T07:15:53.849Z,54.78
2022-12-19T07:18:20.892Z,48.90
2022-12-19T07:20:47.684Z,54.20
2022-12-19T07:23:18.072Z,57.78
2022-12-19T07:25:44.921Z,49.95
2022-12-19T07:28:11.872Z,60.35
2022-12-19T07:30:38.695Z,57.28
2022-12-19T07:33:05.546Z,54.25
2022-12-19T07:35:32.361Z,54.75
2022-12-19T07:38:07.372Z,57.88
2022-12-19T07:40:35.084Z,54.42
2022-12-19T07:43:05.645Z,61.63
2022-12-19T07:45:33.136Z,57.15
2022-12-19T07:48:04.698Z,63.13
2022-12-19T07:50:31.898Z,65.45
2022-12-19T07:52:59.244Z,57.47
2022-12-19T07:55:26.938Z,57.10
2022-12-19T07:57:55.283Z,61.42
2022-12-19T08:00:22.858Z,50.85
2022-12-19T08:02:49.805Z,55.65
2022-12-19T08:05:16.929Z,55.05
2022-12-19T08:07:44.021Z,54.90
2022-12-19T08:10:12.619Z,54.63
2022-12-19T08:12:39.476Z,47.05
2022-12-19T08:15:07.493Z,53.95
2022-12-19T08:17:35.443Z,42.92
2022-12-19T08:20:02.363Z,48.28
2022-12-19T08:22:31.293Z,44.75
2022-12-19T08:24:58.109Z,53.38
2022-12-19T08:27:25.476Z,48.55
2022-12-19T08:29:52.700Z,53.85
2022-12-19T08:32:21.600Z,45.95
2022-12-19T08:34:49.896Z,49.85
2022-12-19T08:37:17.351Z,44.40
2022-12-19T08:39:44.514Z,45.83
2022-12-19T08:42:11.380Z,45.33
2022-12-19T08:44:38.270Z,47.55
2022-12-19T08:47:05.274Z,46.78
2022-12-19T08:49:32.157Z,46.85
2022-12-19T08:51:58.989Z,46.05
2022-12-19T08:54:27.205Z,48.20
2022-12-19T08:56:54.242Z,42.97
2022-12-19T08:59:30.867Z,46.67
2022-12-19T09:02:00.223Z,48.13
2022-12-19T09:05:59.557Z,41.35
2022-12-19T09:07:16.065Z,49.03
2022-12-19T09:09:44.154Z,45.08
2022-12-19T09:12:13.303Z,40.40
2022-12-19T09:14:40.211Z,46.30
2022-12-19T09:17:07.514Z,40.78
2022-12-19T09:19:34.515Z,44.78
2022-12-19T09:22:01.439Z,44.83
2022-12-19T09:24:28.483Z,41.03
2022-12-19T09:26:55.336Z,43.03
2022-12-19T09:29:22.486Z,40.58
2022-12-19T09:31:56.481Z,39.33
2022-12-19T09:34:37.669Z,42.47
2022-12-19T09:37:17.000Z,41.53
2022-12-19T09:39:46.510Z,37.65
2022-12-19T09:42:19.644Z,42.65
2022-12-19T09:44:55.396Z,44.97
2022-12-19T09:47:29.249Z,47.03
2022-12-19T09:49:58.775Z,43.13
2022-12-19T09:52:33.041Z,42.00
2022-12-19T09:55:27.660Z,40.35
2022-12-19T09:58:28.426Z,41.08
2022-12-19T10:01:00.186Z,51.17
2022-12-19T10:03:41.751Z,51.58
2022-12-19T10:06:48.595Z,42.42
2022-12-19T10:11:15.358Z,43.40
2022-12-19T10:12:42.260Z,37.33
2022-12-19T10:15:19.239Z,40.42
2022-12-19T10:18:15.503Z,40.47
2022-12-19T10:20:48.547Z,42.03
2022-12-19T10:23:42.129Z,39.15
2022-12-19T10:26:30.254Z,39.85
2022-12-19T10:29:10.951Z,41.38
2022-12-19T10:32:04.446Z,38.38
2022-12-19T10:34:41.145Z,35.92
2022-12-19T10:37:26.748Z,37.40
2022-12-19T10:40:27.377Z,34.92
2022-12-19T10:43:15.425Z,39.25
2022-12-19T10:45:54.158Z,38.97
2022-12-19T10:48:30.706Z,37.00
2022-12-19T10:50:58.391Z,35.47
2022-12-19T10:53:30.149Z,37.92
2022-12-19T10:56:13.772Z,38.97
2022-12-19T10:58:43.381Z,40.45
2022-12-19T11:01:27.835Z,40.42
2022-12-19T11:04:29.714Z,40.70
2022-12-19T11:07:02.630Z,41.63
2022-12-19T11:09:31.049Z,43.40
2022-12-19T11:17:10.573Z,50.00
2022-12-19T11:23:31.393Z,47.42
2022-12-19T11:26:32.438Z,47.80
2022-12-19T11:29:42.718Z,42.80
2022-12-19T11:29:46.627Z,41.05
2022-12-19T11:30:43.175Z,43.30
2022-12-19T11:32:44.203Z,42.05
2022-12-19T11:35:18.554Z,40.72
2022-12-19T11:37:56.079Z,44.67
2022-12-19T11:40:22.944Z,40.60
2022-12-19T11:43:25.552Z,42.17
2022-12-19T11:45:48.372Z,46.67
2022-12-19T11:48:21.259Z,42.20
2022-12-19T11:51:01.458Z,41.00
2022-12-19T11:53:45.255Z,42.42
2022-12-19T11:58:50.631Z,37.10
2022-12-19T12:01:33.643Z,42.03
2022-12-19T12:04:36.388Z,41.65
2022-12-19T12:17:05.073Z,36.53
2022-12-19T12:25:01.466Z,38.78
2022-12-19T12:29:11.931Z,40.75
2022-12-19T12:31:27.720Z,40.05
2022-12-19T12:31:44.390Z,47.13
2022-12-19T12:31:52.739Z,42.60
2022-12-19T12:32:02.267Z,45.60
2022-12-19T12:35:30.229Z,47.75
2022-12-19T12:38:40.345Z,48.13
2022-12-19T12:41:18.716Z,52.45
2022-12-19T12:44:10.274Z,45.65
2022-12-19T12:46:48.361Z,45.72
2022-12-19T12:49:36.935Z,44.00
2022-12-19T12:52:07.991Z,42.70
2022-12-19T12:54:39.541Z,36.50
2022-12-19T12:57:07.050Z,44.20
2022-12-19T12:59:34.046Z,39.55
2022-12-19T13:02:19.028Z,47.00
2022-12-19T13:04:58.727Z,40.88
2022-12-19T13:07:35.764Z,42.53
2022-12-19T13:10:26.685Z,42.90
2022-12-19T13:13:21.118Z,40.35
2022-12-19T13:15:51.044Z,40.83
2022-12-19T13:18:37.649Z,42.08
2022-12-19T13:21:06.975Z,44.05
2022-12-19T13:23:44.003Z,43.05
2022-12-19T13:26:44.812Z,43.22
2022-12-19T13:29:59.610Z,40.75
2022-12-19T13:32:46.929Z,43.55
2022-12-19T13:37:04.508Z,42.30
2022-12-19T13:39:50.860Z,44.17
2022-12-19T13:41:46.311Z,43.00
2022-12-19T13:46:42.918Z,42.70
2022-12-19T13:49:34.324Z,51.42
2022-12-19T13:52:03.177Z,54.83
2022-12-19T13:54:34.714Z,56.17
2022-12-19T13:57:09.288Z,38.42
2022-12-19T13:59:40.141Z,50.80
2022-12-19T14:02:27.076Z,43.28
2022-12-19T14:04:54.215Z,48.53
2022-12-19T14:07:36.228Z,49.38
2022-12-19T14:11:35.143Z,47.45
2022-12-19T14:13:51.141Z,45.28
2022-12-19T14:16:04.552Z,45.42
2022-12-19T14:18:43.034Z,48.70
2022-12-19T14:22:09.845Z,44.13
2022-12-19T14:24:34.779Z,46.10
2022-12-19T14:28:19.732Z,46.30
2022-12-19T14:30:26.352Z,45.00
2022-12-19T14:33:46.387Z,48.40
2022-12-19T14:36:10.813Z,51.60
2022-12-19T14:39:27.629Z,49.58
2022-12-19T14:42:01.749Z,47.55
2022-12-19T14:52:35.768Z,47.00
2022-12-19T14:54:14.696Z,51.15
2022-12-19T14:54:22.221Z,49.25
2022-12-19T14:54:28.758Z,46.03
2022-12-19T14:59:29.151Z,52.63
2022-12-19T15:02:08.373Z,56.72
2022-12-19T15:04:51.192Z,52.47
2022-12-19T15:07:23.924Z,59.65
2022-12-19T15:11:02.372Z,57.80
2022-12-19T15:14:49.251Z,65.47
2022-12-19T15:16:05.952Z,60.95
2022-12-19T15:18:32.896Z,58.00
2022-12-19T15:21:09.880Z,61.55
2022-12-19T15:23:36.678Z,54.25
2022-12-19T15:26:16.813Z,52.42
2022-12-19T15:28:50.566Z,49.10
2022-12-19T15:31:35.540Z,55.20
2022-12-19T15:34:34.921Z,61.03
2022-12-19T15:37:02.927Z,58.03
2022-12-19T15:39:30.358Z,56.65
2022-12-19T15:41:59.831Z,65.47
2022-12-19T15:44:41.781Z,61.53
2022-12-19T15:47:23.358Z,59.05
2022-12-19T15:49:50.188Z,62.92
2022-12-19T15:52:21.689Z,59.90
2022-12-19T15:54:50.547Z,65.22
2022-12-19T15:57:39.335Z,53.72
2022-12-19T16:00:24.901Z,56.28
2022-12-19T16:05:40.587Z,64.05
2022-12-19T16:08:22.934Z,63.80
2022-12-19T16:11:01.343Z,67.65
2022-12-19T16:13:35.099Z,66.63
2022-12-19T16:16:07.786Z,63.65
2022-12-19T16:18:39.756Z,65.25
2022-12-19T16:21:06.545Z,67.32
2022-12-19T16:23:33.353Z,76.47
2022-12-19T16:26:00.220Z,66.88
2022-12-19T16:28:30.815Z,66.18
2022-12-19T16:30:59.003Z,62.45
2022-12-19T16:33:28.962Z,71.10
2022-12-19T16:36:05.121Z,70.22
2022-12-19T16:38:33.338Z,76.68
2022-12-19T16:41:01.771Z,70.60
2022-12-19T16:43:31.723Z,66.70
2022-12-19T16:46:01.454Z,69.25
2022-12-19T16:48:30.103Z,67.15
2022-12-19T16:51:00.413Z,66.65
2022-12-19T16:53:27.712Z,65.32
2022-12-19T16:55:56.285Z,58.65
2022-12-19T16:58:26.266Z,64.28
2022-12-19T17:00:55.207Z,70.03
2022-12-19T17:03:40.914Z,74.20
2022-12-19T17:06:19.054Z,66.15
2022-12-19T17:08:46.779Z,61.42
2022-12-19T17:11:16.747Z,72.43
2022-12-19T17:13:45.658Z,66.55
2022-12-19T17:16:13.550Z,62.70
2022-12-19T17:18:42.200Z,66.15
2022-12-19T17:21:19.648Z,67.13
2022-12-19T17:23:46.774Z,64.95
2022-12-19T17:26:17.636Z,65.80
2022-12-19T17:28:48.099Z,62.45
2022-12-19T17:31:25.592Z,57.10
2022-12-19T17:33:54.419Z,52.45
2022-12-19T17:36:26.105Z,52.03
2022-12-19T17:38:54.523Z,44.45
2022-12-19T17:41:21.297Z,49.17
2022-12-19T17:43:48.090Z,49.90
2022-12-19T17:46:20.071Z,60.97
2022-12-19T17:48:52.654Z,55.88
2022-12-19T17:51:21.551Z,53.70
2022-12-19T17:53:49.877Z,57.83
2022-12-19T17:56:18.727Z,53.67
2022-12-19T17:58:45.796Z,55.45
2022-12-19T18:01:24.446Z,52.75
2022-12-19T18:03:53.678Z,54.88
2022-12-19T18:06:20.763Z,54.03
2022-12-19T18:08:47.764Z,50.60
2022-12-19T18:11:23.290Z,52.58
2022-12-19T18:13:50.666Z,51.67
2022-12-19T18:16:20.789Z,50.42
2022-12-19T18:18:48.013Z,47.60
2022-12-19T18:21:17.057Z,55.15
2022-12-19T18:23:44.116Z,61.45
2022-12-19T18:26:12.002Z,66.97
2022-12-19T18:28:40.244Z,61.20
2022-12-19T18:31:18.196Z,62.38
2022-12-19T18:33:47.823Z,59.22
2022-12-19T18:36:22.605Z,65.65
2022-12-19T18:38:50.150Z,70.47
2022-12-19T18:41:18.962Z,64.10
2022-12-19T18:43:46.546Z,52.00
2022-12-19T18:46:22.048Z,52.28
2022-12-19T18:48:49.091Z,50.03
2022-12-19T18:51:21.444Z,68.82
2022-12-19T18:53:49.504Z,63.75
2022-12-19T18:56:16.410Z,62.85
2022-12-19T18:58:43.381Z,65.18
2022-12-19T19:01:16.433Z,63.55
2022-12-19T19:03:56.849Z,58.72
2022-12-19T19:06:26.947Z,57.28
2022-12-19T19:08:54.095Z,60.47
2022-12-19T19:11:23.466Z,57.15
2022-12-19T19:13:51.036Z,55.97
2022-12-19T19:16:24.772Z,58.83
2022-12-19T19:18:59.038Z,56.47
2022-12-19T19:21:34.770Z,51.90
2022-12-19T19:24:08.452Z,53.00
2022-12-19T19:26:35.570Z,50.00
2022-12-19T19:29:03.285Z,56.60
2022-12-19T19:31:35.955Z,60.63
2022-12-19T19:34:30.817Z,60.45
2022-12-19T19:37:00.626Z,62.30
2022-12-19T19:39:28.141Z,59.30
2022-12-19T19:41:56.362Z,56.58
2022-12-19T19:44:23.336Z,44.75
2022-12-19T19:46:50.237Z,44.05
2022-12-19T19:49:17.164Z,40.47
2022-12-19T19:51:43.975Z,42.28
2022-12-19T19:54:10.815Z,37.53
2022-12-19T19:56:37.704Z,43.95
2022-12-19T19:59:04.893Z,38.75
2022-12-19T20:01:32.160Z,33.25
2022-12-19T20:03:59.182Z,32.30
2022-12-19T20:06:26.034Z,38.65
2022-12-19T20:08:52.898Z,35.17
2022-12-19T20:11:20.777Z,37.13
2022-12-19T20:13:47.802Z,47.03
2022-12-19T20:16:17.417Z,49.00
2022-12-19T20:18:49.240Z,46.33
2022-12-19T20:21:16.377Z,46.72
2022-12-19T20:23:43.860Z,45.67
2022-12-19T20:26:12.572Z,39.65
2022-12-19T20:28:47.731Z,49.15
2022-12-19T20:31:20.533Z,42.75
2022-12-19T20:33:48.623Z,47.63
2022-12-19T20:36:16.587Z,55.90
2022-12-19T20:38:43.497Z,56.45
2022-12-19T20:41:10.607Z,54.92
2022-12-19T20:43:38.571Z,55.08
2022-12-19T20:46:08.802Z,52.10
2022-12-19T20:48:35.966Z,48.67
2022-12-19T20:51:04.678Z,44.97
2022-12-19T20:53:33.078Z,43.35
2022-12-19T20:56:01.168Z,40.97
2022-12-19T20:58:30.160Z,42.13
2022-12-19T21:01:03.138Z,37.90
2022-12-19T21:03:30.710Z,38.17
2022-12-19T21:05:58.091Z,36.63
2022-12-19T21:08:26.327Z,38.72
2022-12-19T21:10:53.518Z,36.25
2022-12-19T21:13:21.338Z,30.50
2022-12-19T21:15:59.379Z,35.38
2022-12-19T21:18:27.135Z,30.77
2022-12-19T21:20:54.773Z,33.22
2022-12-19T21:23:23.038Z,36.22
2022-12-19T21:25:49.893Z,43.97
2022-12-19T21:28:16.714Z,45.38
2022-12-19T21:30:43.539Z,36.40
2022-12-19T21:33:10.446Z,47.97
2022-12-19T21:35:38.047Z,46.17
2022-12-19T21:38:04.991Z,41.80
2022-12-19T21:40:31.825Z,33.15
2022-12-19T21:42:58.648Z,30.65
2022-12-19T21:45:25.474Z,31.42
2022-12-19T21:47:52.295Z,31.50
2022-12-19T21:50:19.220Z,31.85
2022-12-19T21:52:48.202Z,36.33
2022-12-19T21:57:45.338Z,35.95
2022-12-19T22:00:13.308Z,33.80
2022-12-19T22:02:55.411Z,39.33
2022-12-19T22:05:27.212Z,36.53
2022-12-19T22:07:54.018Z,39.30
2022-12-19T22:10:21.127Z,42.63
2022-12-19T22:12:48.558Z,37.67
2022-12-19T22:15:15.506Z,43.63
2022-12-19T22:17:43.880Z,36.88
2022-12-19T22:20:11.135Z,29.65
2022-12-19T22:22:37.992Z,35.90
2022-12-19T22:25:05.157Z,34.22
2022-12-19T22:27:32.101Z,35.22
2022-12-19T22:30:02.122Z,31.95
2022-12-19T22:32:31.790Z,35.53
2022-12-19T22:34:58.697Z,33.60
2022-12-19T22:37:25.608Z,35.58
2022-12-19T22:39:52.546Z,30.92
2022-12-19T22:42:24.768Z,32.38
2022-12-19T22:47:30.340Z,30.75
2022-12-19T22:49:59.333Z,33.50
2022-12-19T22:52:26.580Z,31.88
2022-12-19T22:54:53.839Z,33.20
2022-12-19T22:57:21.193Z,34.00
2022-12-19T22:59:48.738Z,37.67
2022-12-19T23:02:23.509Z,33.42
2022-12-19T23:04:52.162Z,31.38
2022-12-19T23:07:19.522Z,34.53
2022-12-19T23:09:48.721Z,33.97
2022-12-19T23:12:16.276Z,31.95
2022-12-19T23:14:43.947Z,33.65
2022-12-19T23:17:11.396Z,33.47
2022-12-19T23:19:47.045Z,29.92
2022-12-19T23:22:22.385Z,30.60
2022-12-19T23:24:52.607Z,33.88
2022-12-19T23:27:19.961Z,34.83
2022-12-19T23:29:55.301Z,36.28
2022-12-19T23:32:24.947Z,35.97
2022-12-19T23:34:54.925Z,29.70
2022-12-19T23:37:22.178Z,34.20
2022-12-19T23:39:49.774Z,33.03
2022-12-19T23:42:22.755Z,34.00
2022-12-19T23:44:55.710Z,32.70
2022-12-19T23:47:25.939Z,31.50
2022-12-19T23:49:53.304Z,35.10
2022-12-19T23:52:20.640Z,33.50
2022-12-19T23:54:47.899Z,35.10
2022-12-19T23:57:15.145Z,33.05
2022-12-19T23:59:48.235Z,31.02
